Time;durP1;ratioP1;P1;durP2;ratioP2;P2;SDS_P1;SDS_P2;PMS_P1;PMS_P2;Temp;Humidity;BMP_temperature;BMP_pressure;BME280_temperature;BME280_humidity;BME280_pressure;Samples;Min_cycle;Max_cycle;Signal;HPM_P1;HPM_P2
2023/12/24 00:01:21;;;;;;;;;;;;;;;7.64;100.00;100263.69;4964620;28;19926;-79
2023/12/24 00:03:46;;;;;;;;;;;;;;;7.64;100.00;100274.41;4971526;28;20045;-77
2023/12/24 00:06:11;;;;;;;;;;;;;;;7.66;100.00;100263.50;4968976;28;19993;-77
2023/12/24 00:08:54;;;;;;;;;;;;;;;7.71;100.00;100264.59;4971539;28;19926;-78
2023/12/24 00:11:19;;;;;;;;;;;;;;;7.74;100.00;100256.16;4973675;28;19929;-77
2023/12/24 00:13:45;;;;;;;;;;;;;;;7.71;100.00;100247.66;4968903;28;20661;-79
2023/12/24 00:16:10;;;;;;;;;;;;;;;7.75;100.00;100256.97;4971142;28;19933;-78
2023/12/24 00:18:35;;;;;;;;;;;;;;;7.78;100.00;100277.19;4957555;28;19925;-77
2023/12/24 00:21:01;;;;;;;;;;;;;;;7.77;100.00;100264.81;4968008;28;19919;-77
2023/12/24 00:23:26;;;;;;;;;;;;;;;7.80;100.00;100253.72;4969527;28;19934;-77
2023/12/24 00:25:51;;;;;;;;;;;;;;;7.86;100.00;100260.97;4970397;28;19922;-77
2023/12/24 00:28:16;;;;;;;;;;;;;;;7.90;100.00;100259.59;4970746;28;19922;-77
2023/12/24 00:30:41;;;;;;;;;;;;;;;7.95;100.00;100257.13;4972634;28;19929;-76
2023/12/24 00:33:07;;;;;;;;;;;;;;;8.03;100.00;100265.03;4969511;28;19922;-76
2023/12/24 00:35:34;;;;;;;;;;;;;;;8.00;100.00;100254.69;4980668;28;19937;-77
2023/12/24 00:37:59;;;;;;;;;;;;;;;8.04;100.00;100237.22;4976033;28;20021;-76
2023/12/24 00:40:24;;;;;;;;;;;;;;;8.06;100.00;100239.69;4976921;28;19926;-77
2023/12/24 00:42:49;;;;;;;;;;;;;;;8.09;100.00;100220.53;4982436;28;19930;-76
2023/12/24 00:45:15;;;;;;;;;;;;;;;8.17;100.00;100222.22;4975799;28;19957;-76
2023/12/24 00:47:40;;;;;;;;;;;;;;;8.19;100.00;100226.38;4997378;23;19961;-78
2023/12/24 00:50:06;;;;;;;;;;;;;;;8.14;100.00;100207.38;4972957;28;19922;-77
2023/12/24 00:52:31;;;;;;;;;;;;;;;8.16;100.00;100199.13;4972542;28;20021;-77
2023/12/24 00:54:57;;;;;;;;;;;;;;;8.18;100.00;100207.81;4969537;28;20365;-77
2023/12/24 00:57:22;;;;;;;;;;;;;;;8.19;100.00;100194.22;4975348;28;19968;-77
2023/12/24 00:59:47;;;;;;;;;;;;;;;8.21;100.00;100207.41;4978674;28;20016;-78
2023/12/24 01:02:12;;;;;;;;;;;;;;;8.18;100.00;100197.06;4968163;28;19922;-77
2023/12/24 01:04:37;;;;;;;;;;;;;;;8.22;100.00;100192.13;4970119;28;19989;-77
2023/12/24 01:07:03;;;;;;;;;;;;;;;8.21;100.00;100202.06;4976440;28;19922;-77
2023/12/24 01:09:28;;;;;;;;;;;;;;;8.23;100.00;100199.16;4975575;28;19929;-77
2023/12/24 01:11:56;;;;;;;;;;;;;;;8.23;100.00;100167.81;4977003;28;19926;-77
2023/12/24 01:14:21;;;;;;;;;;;;;;;8.16;100.00;100183.88;4974753;28;19918;-77
2023/12/24 01:16:46;;;;;;;;;;;;;;;8.19;100.00;100180.81;4977498;28;20026;-77
2023/12/24 01:19:12;;;;;;;;;;;;;;;8.19;100.00;100188.00;4978955;28;19926;-78
2023/12/24 01:21:37;;;;;;;;;;;;;;;8.24;100.00;100182.88;4970097;28;20002;-78
2023/12/24 01:24:02;;;;;;;;;;;;;;;8.22;100.00;100176.91;4974673;28;19922;-77
2023/12/24 01:26:28;;;;;;;;;;;;;;;8.21;100.00;100185.97;4982215;28;19922;-77
2023/12/24 01:28:53;;;;;;;;;;;;;;;8.22;100.00;100184.09;4988207;28;20016;-78
2023/12/24 01:31:19;;;;;;;;;;;;;;;8.18;100.00;100179.16;4983498;28;19922;-77
2023/12/24 01:33:44;;;;;;;;;;;;;;;8.19;100.00;100188.00;4984455;28;19989;-77
2023/12/24 01:36:09;;;;;;;;;;;;;;;8.30;100.00;100184.75;4981811;28;19922;-78
2023/12/24 01:38:35;;;;;;;;;;;;;;;8.21;100.00;100180.59;4975113;28;19930;-77
2023/12/24 01:41:00;;;;;;;;;;;;;;;8.29;100.00;100176.94;4976330;28;19930;-78
2023/12/24 01:43:25;;;;;;;;;;;;;;;8.19;100.00;100177.28;4976658;28;19922;-78
2023/12/24 01:45:50;;;;;;;;;;;;;;;8.22;100.00;100176.91;4975717;28;19930;-77
2023/12/24 01:48:16;;;;;;;;;;;;;;;8.21;100.00;100161.03;4976363;28;19969;-78
2023/12/24 01:50:42;;;;;;;;;;;;;;;8.17;100.00;100171.28;4973906;28;19957;-77
2023/12/24 01:53:07;;;;;;;;;;;;;;;8.15;100.00;100182.22;4964907;28;19965;-78
2023/12/24 01:55:32;;;;;;;;;;;;;;;8.28;100.00;100169.91;4971826;28;19964;-77
2023/12/24 01:57:58;;;;;;;;;;;;;;;8.26;100.00;100161.22;4969645;28;19933;-77
2023/12/24 02:00:23;;;;;;;;;;;;;;;8.18;100.00;100159.53;4978242;28;19922;-77
2023/12/24 02:02:48;;;;;;;;;;;;;;;8.16;100.00;100161.59;4999815;28;19922;-78
2023/12/24 02:05:14;;;;;;;;;;;;;;;8.23;100.00;100162.47;4963701;28;20025;-77
2023/12/24 02:07:39;;;;;;;;;;;;;;;8.27;100.00;100168.25;4978847;28;19984;-78
2023/12/24 02:10:04;;;;;;;;;;;;;;;8.14;100.00;100166.31;4965994;28;20921;-77
2023/12/24 02:12:30;;;;;;;;;;;;;;;8.11;100.00;100166.75;4975604;28;19928;-77
2023/12/24 02:14:55;;;;;;;;;;;;;;;8.10;100.00;100167.75;4965292;28;20012;-78
2023/12/24 02:17:22;;;;;;;;;;;;;;;8.02;100.00;100166.88;4973836;28;19957;-78
2023/12/24 02:19:47;;;;;;;;;;;;;;;8.00;100.00;100160.06;4977109;28;19930;-77
2023/12/24 02:22:12;;;;;;;;;;;;;;;8.03;100.00;100167.72;4970008;28;19930;-78
2023/12/24 02:24:37;;;;;;;;;;;;;;;8.07;100.00;100157.44;4975572;28;19922;-77
2023/12/24 02:27:02;;;;;;;;;;;;;;;7.91;100.00;100148.69;4975712;28;19925;-77
2023/12/24 02:29:46;;;;;;;;;;;;;;;7.81;100.00;100134.78;4980121;28;19922;-77
2023/12/24 02:32:15;;;;;;;;;;;;;;;7.73;100.00;100136.63;4983740;28;19926;-78
2023/12/24 02:34:48;;;;;;;;;;;;;;;7.69;100.00;100140.69;4981890;28;20491;-78
2023/12/24 02:37:13;;;;;;;;;;;;;;;7.68;100.00;100131.00;4985083;28;19926;-78
2023/12/24 02:39:38;;;;;;;;;;;;;;;7.59;100.00;100127.66;4973495;28;20385;-78
2023/12/24 02:42:04;;;;;;;;;;;;;;;7.55;100.00;100130.94;4976102;28;19918;-77
2023/12/24 02:44:29;;;;;;;;;;;;;;;7.48;100.00;100122.00;4975147;28;19976;-77
2023/12/24 02:46:54;;;;;;;;;;;;;;;7.35;100.00;100112.84;4974276;28;19918;-77
2023/12/24 02:49:22;;;;;;;;;;;;;;;7.50;100.00;100117.28;4970515;28;19930;-77
2023/12/24 02:51:47;;;;;;;;;;;;;;;7.45;100.00;100112.50;4972648;28;19972;-78
2023/12/24 02:54:12;;;;;;;;;;;;;;;7.40;100.00;100112.25;4970758;28;20017;-77
2023/12/24 02:56:38;;;;;;;;;;;;;;;7.35;100.00;100099.47;4971779;28;20036;-77
2023/12/24 02:59:03;;;;;;;;;;;;;;;7.22;100.00;100099.38;4979648;28;19933;-77
2023/12/24 03:01:31;;;;;;;;;;;;;;;7.23;100.00;100088.44;4983502;28;20362;-77
2023/12/24 03:03:57;;;;;;;;;;;;;;;7.17;100.00;100094.56;4981180;28;19906;-78
2023/12/24 03:14:08;;;;;;;;;;;;;;;7.14;100.00;100094.97;5719985;23;19925;-77
2023/12/24 03:16:33;;;;;;;;;;;;;;;7.18;100.00;100103.44;4993619;28;19940;-77
2023/12/24 03:19:05;;;;;;;;;;;;;;;7.16;100.00;100102.81;4993818;28;19918;-77
2023/12/24 03:21:30;;;;;;;;;;;;;;;7.15;100.00;100095.78;4982643;28;20348;-78
2023/12/24 03:23:55;;;;;;;;;;;;;;;7.07;100.00;100100.25;4986250;28;19922;-77
2023/12/24 03:26:21;;;;;;;;;;;;;;;7.07;100.00;100088.72;4976412;28;19935;-78
2023/12/24 03:28:47;;;;;;;;;;;;;;;7.29;100.00;100076.13;4980126;28;20370;-77
2023/12/24 03:31:12;;;;;;;;;;;;;;;7.19;100.00;100086.38;4989369;28;20024;-77
2023/12/24 03:33:37;;;;;;;;;;;;;;;7.21;100.00;100085.13;4988615;28;20290;-78
2023/12/24 03:36:02;;;;;;;;;;;;;;;7.15;100.00;100088.56;4991671;28;20277;-77
2023/12/24 03:38:28;;;;;;;;;;;;;;;7.18;100.00;100085.50;4991416;28;19945;-77
2023/12/24 03:40:56;;;;;;;;;;;;;;;7.12;100.00;100071.06;4982619;28;19929;-77
2023/12/24 03:43:21;;;;;;;;;;;;;;;7.09;100.00;100059.94;4985452;28;19921;-78
2023/12/24 03:45:49;;;;;;;;;;;;;;;7.12;100.00;100065.72;4987795;28;19944;-77
2023/12/24 03:48:14;;;;;;;;;;;;;;;7.15;100.00;100048.44;4980424;28;19926;-77
2023/12/24 03:50:40;;;;;;;;;;;;;;;7.16;100.00;100059.97;4986212;28;19948;-77
2023/12/24 03:53:08;;;;;;;;;;;;;;;7.05;100.00;100066.69;4988350;28;19972;-77
2023/12/24 03:55:33;;;;;;;;;;;;;;;7.13;100.00;100066.56;4985751;28;20382;-77
2023/12/24 04:06:13;;;;;;;;;;;;;;;7.27;100.00;100051.41;5794175;23;20076;-77
2023/12/24 04:08:38;;;;;;;;;;;;;;;7.25;100.00;100037.38;4990669;28;19922;-78
2023/12/24 04:11:03;;;;;;;;;;;;;;;7.22;100.00;100035.94;4989645;28;19925;-77
2023/12/24 04:13:28;;;;;;;;;;;;;;;7.27;100.00;100032.66;4975061;28;19933;-77
2023/12/24 04:15:53;;;;;;;;;;;;;;;7.21;100.00;100031.59;4979814;28;19932;-77
2023/12/24 04:18:19;;;;;;;;;;;;;;;7.24;100.00;100036.56;4979521;28;20006;-77
2023/12/24 04:20:44;;;;;;;;;;;;;;;7.22;100.00;100024.41;4984192;28;20397;-78
2023/12/24 04:23:09;;;;;;;;;;;;;;;7.20;100.00;100018.41;4985064;28;20381;-78
2023/12/24 04:25:34;;;;;;;;;;;;;;;7.25;100.00;100021.31;4987999;28;20369;-77
2023/12/24 04:28:00;;;;;;;;;;;;;;;7.32;100.00;100029.41;4988166;28;20297;-77
2023/12/24 04:30:28;;;;;;;;;;;;;;;7.39;100.00;100027.59;4993298;28;20009;-78
2023/12/24 04:32:53;;;;;;;;;;;;;;;7.36;100.00;100020.78;4993262;28;19922;-78
2023/12/24 04:43:04;;;;;;;;;;;;;;;7.52;100.00;100010.78;5669172;23;19926;-78
2023/12/24 04:45:29;;;;;;;;;;;;;;;7.43;100.00;100008.25;4976006;28;20294;-77
2023/12/24 04:47:58;;;;;;;;;;;;;;;7.62;100.00;99997.03;4963181;28;20353;-77
2023/12/24 04:50:23;;;;;;;;;;;;;;;7.59;100.00;100006.28;4987829;28;19925;-78
2023/12/24 04:52:49;;;;;;;;;;;;;;;7.56;100.00;100006.69;4975765;28;20005;-77
2023/12/24 04:55:14;;;;;;;;;;;;;;;7.59;100.00;99993.72;4961881;28;19980;-77
2023/12/24 04:57:39;;;;;;;;;;;;;;;7.62;100.00;99991.69;4983215;28;20357;-77
2023/12/24 05:00:05;;;;;;;;;;;;;;;7.60;100.00;99991.84;4972663;28;19929;-77
2023/12/24 05:52:19;;;;;;;;;;;;;;;7.84;100.00;99957.56;5085666;23;19985;-78
2023/12/24 05:54:44;;;;;;;;;;;;;;;7.91;100.00;99952.22;4992033;28;19910;-78
2023/12/24 05:57:09;;;;;;;;;;;;;;;7.95;100.00;99958.81;4999520;28;19937;-77
2023/12/24 05:59:34;;;;;;;;;;;;;;;7.86;100.00;99985.78;4998147;28;19922;-78
2023/12/24 06:02:02;;;;;;;;;;;;;;;7.85;100.00;99968.06;4988316;28;20012;-78
2023/12/24 06:04:27;;;;;;;;;;;;;;;7.84;100.00;99965.59;4997404;28;19921;-78
2023/12/24 06:14:38;;;;;;;;;;;;;;;7.93;100.00;99964.41;3202618;26;19937;-77
2023/12/24 06:17:03;;;;;;;;;;;;;;;8.00;100.00;99954.50;4984499;28;20060;-77
2023/12/24 06:19:29;;;;;;;;;;;;;;;7.99;100.00;99952.84;4992411;28;19989;-77
2023/12/24 06:21:54;;;;;;;;;;;;;;;7.96;100.00;99947.88;4992832;28;19922;-77
2023/12/24 06:24:21;;;;;;;;;;;;;;;8.01;100.00;99958.03;4983566;28;20020;-78
2023/12/24 06:26:49;;;;;;;;;;;;;;;7.99;100.00;99957.41;4995865;28;19949;-77
2023/12/24 06:29:14;;;;;;;;;;;;;;;8.02;100.00;99951.63;4983994;28;19936;-77
2023/12/24 06:31:39;;;;;;;;;;;;;;;8.03;100.00;99943.38;5011906;23;19926;-77
2023/12/24 06:34:04;;;;;;;;;;;;;;;8.02;100.00;99946.28;4995642;28;19922;-77
2023/12/24 06:36:29;;;;;;;;;;;;;;;8.07;100.00;99949.16;4990004;28;19926;-77
2023/12/24 06:38:55;;;;;;;;;;;;;;;8.07;100.00;99949.16;4993045;28;19949;-76
2023/12/24 06:41:20;;;;;;;;;;;;;;;8.03;100.00;99948.75;4982075;28;19928;-76
2023/12/24 06:43:45;;;;;;;;;;;;;;;8.09;100.00;99957.00;4987505;28;19922;-77
2023/12/24 06:46:12;;;;;;;;;;;;;;;8.16;100.00;99942.59;4990467;28;19922;-76
2023/12/24 06:48:38;;;;;;;;;;;;;;;8.14;100.00;99944.66;4992545;28;19981;-76
2023/12/24 06:51:03;;;;;;;;;;;;;;;8.07;100.00;99941.13;4991197;28;19926;-76
2023/12/24 06:53:28;;;;;;;;;;;;;;;8.07;100.00;99953.72;4985291;28;20131;-76
2023/12/24 06:55:53;;;;;;;;;;;;;;;8.10;100.00;99942.59;4991404;28;19922;-76
2023/12/24 06:58:19;;;;;;;;;;;;;;;8.06;100.00;99939.47;4989317;28;20069;-76
2023/12/24 07:00:47;;;;;;;;;;;;;;;8.09;100.00;99944.41;4990087;28;19961;-76
2023/12/24 07:03:15;;;;;;;;;;;;;;;8.10;100.00;99947.94;4978184;28;19965;-77
2023/12/24 07:05:41;;;;;;;;;;;;;;;8.06;100.00;99946.69;4991923;28;19928;-77
2023/12/24 07:08:09;;;;;;;;;;;;;;;8.06;100.00;99947.50;4983913;28;19933;-77
2023/12/24 07:10:35;;;;;;;;;;;;;;;8.09;100.00;99944.41;4986285;28;19930;-77
2023/12/24 07:13:00;;;;;;;;;;;;;;;8.19;100.00;99947.56;4981574;28;19926;-76
2023/12/24 07:15:30;;;;;;;;;;;;;;;8.17;100.00;99924.63;4986909;28;19949;-76
2023/12/24 07:17:56;;;;;;;;;;;;;;;8.19;100.00;99942.19;4982151;28;20012;-76
2023/12/24 07:20:21;;;;;;;;;;;;;;;8.21;100.00;99928.56;4983957;28;19962;-76
2023/12/24 07:22:46;;;;;;;;;;;;;;;8.18;100.00;99928.97;4986894;28;19976;-76
2023/12/24 07:25:12;;;;;;;;;;;;;;;8.27;100.00;99927.75;4991605;28;20293;-76
2023/12/24 07:27:37;;;;;;;;;;;;;;;8.29;100.00;99931.06;4982916;28;19930;-77
2023/12/24 07:30:03;;;;;;;;;;;;;;;8.32;100.00;99936.00;4979692;28;19976;-76
2023/12/24 07:32:28;;;;;;;;;;;;;;;8.24;100.00;99930.00;4988077;28;19972;-76
2023/12/24 07:34:55;;;;;;;;;;;;;;;8.23;100.00;99931.88;4989449;28;19931;-76
2023/12/24 07:37:20;;;;;;;;;;;;;;;8.21;100.00;99933.13;4979544;28;19929;-77
2023/12/24 07:39:45;;;;;;;;;;;;;;;8.28;100.00;99929.41;4983204;28;19922;-77
2023/12/24 07:42:11;;;;;;;;;;;;;;;8.30;100.00;99921.97;4984937;28;19922;-77
2023/12/24 07:44:39;;;;;;;;;;;;;;;8.38;100.00;99934.38;4986892;28;19914;-77
2023/12/24 07:47:04;;;;;;;;;;;;;;;8.35;100.00;99918.69;4993372;28;19917;-77
2023/12/24 07:49:30;;;;;;;;;;;;;;;8.34;100.00;99927.75;4991147;28;20329;-80
2023/12/24 07:51:55;;;;;;;;;;;;;;;8.37;100.00;99923.84;4984138;28;20646;-77
2023/12/24 07:54:20;;;;;;;;;;;;;;;8.36;100.00;99925.72;4984894;28;20281;-76
2023/12/24 07:56:48;;;;;;;;;;;;;;;8.39;100.00;99927.13;4986382;28;20330;-78
2023/12/24 07:59:13;;;;;;;;;;;;;;;8.27;100.00;99932.28;4985819;28;19922;-77
2023/12/24 08:01:39;;;;;;;;;;;;;;;8.36;100.00;99925.72;4982479;28;19925;-81
2023/12/24 08:04:04;;;;;;;;;;;;;;;8.35;100.00;99919.50;4986386;28;19926;-76
2023/12/24 08:06:29;;;;;;;;;;;;;;;8.37;100.00;99927.34;4982469;28;19933;-77
2023/12/24 08:08:55;;;;;;;;;;;;;;;8.33;100.00;99920.75;4985268;28;19957;-77
2023/12/24 08:11:20;;;;;;;;;;;;;;;8.37;100.00;99929.19;4982800;28;19964;-77
2023/12/24 08:13:46;;;;;;;;;;;;;;;8.31;100.00;99925.50;4978812;28;20389;-77
2023/12/24 08:16:11;;;;;;;;;;;;;;;8.33;100.00;99926.91;4987915;28;20361;-77
2023/12/24 08:18:37;;;;;;;;;;;;;;;8.33;100.00;99928.78;4984442;28;20392;-77
2023/12/24 08:21:02;;;;;;;;;;;;;;;8.42;100.00;99919.50;4981382;28;20048;-77
2023/12/24 08:23:28;;;;;;;;;;;;;;;8.40;100.00;99920.75;4984524;28;19948;-76
2023/12/24 08:25:53;;;;;;;;;;;;;;;8.39;100.00;99924.47;4979442;28;19922;-77
2023/12/24 08:28:20;;;;;;;;;;;;;;;8.33;100.00;99920.75;4980478;28;20293;-77
2023/12/24 08:30:46;;;;;;;;;;;;;;;8.39;100.00;99919.91;4978553;28;20311;-77
2023/12/24 08:33:11;;;;;;;;;;;;;;;8.44;100.00;99916.63;4983751;28;19922;-77
2023/12/24 08:35:37;;;;;;;;;;;;;;;8.47;100.00;99913.53;4990553;28;20028;-78
2023/12/24 08:38:03;;;;;;;;;;;;;;;8.55;100.00;99910.66;4993328;28;19976;-78
2023/12/24 08:40:28;;;;;;;;;;;;;;;8.51;100.00;99912.09;4988482;28;19945;-78
2023/12/24 08:42:57;;;;;;;;;;;;;;;8.56;100.00;99920.38;4989080;28;19925;-78
2023/12/24 08:45:25;;;;;;;;;;;;;;;8.58;100.00;99910.25;4985941;28;19945;-79
2023/12/24 08:47:57;;;;;;;;;;;;;;;8.66;100.00;99903.84;4992133;28;19937;-80
2023/12/24 08:50:22;;;;;;;;;;;;;;;8.58;100.00;99907.56;4983064;28;20653;-79
2023/12/24 08:52:47;;;;;;;;;;;;;;;8.67;100.00;99904.66;4989964;28;19930;-79
2023/12/24 08:55:13;;;;;;;;;;;;;;;8.72;100.00;99912.94;4979058;28;20024;-79
2023/12/24 08:57:38;;;;;;;;;;;;;;;8.71;100.00;99919.31;4985599;28;19922;-77
2023/12/24 09:00:05;;;;;;;;;;;;;;;8.73;100.00;99920.78;4980565;28;20289;-78
2023/12/24 09:02:30;;;;;;;;;;;;;;;8.70;100.00;99931.94;4994030;28;20345;-78
2023/12/24 09:04:57;;;;;;;;;;;;;;;8.74;100.00;99927.78;4995523;28;19937;-79
2023/12/24 09:07:22;;;;;;;;;;;;;;;8.73;100.00;99901.16;4995204;28;20457;-79
2023/12/24 09:09:48;;;;;;;;;;;;;;;8.83;100.00;99914.16;4992406;28;20021;-77
2023/12/24 09:12:13;;;;;;;;;;;;;;;8.86;100.00;99921.78;4992376;28;19922;-78
2023/12/24 09:14:38;;;;;;;;;;;;;;;8.84;100.00;99897.03;4990843;28;19969;-78
2023/12/24 09:17:07;;;;;;;;;;;;;;;8.86;100.00;99921.78;4993611;28;19922;-78
2023/12/24 09:19:32;;;;;;;;;;;;;;;8.84;100.00;99915.81;4992620;28;19922;-78
2023/12/24 09:21:57;;;;;;;;;;;;;;;8.88;100.00;99925.09;4990997;28;19941;-77
2023/12/24 09:24:22;;;;;;;;;;;;;;;8.84;100.00;99913.94;4986897;28;19976;-78
2023/12/24 09:26:47;;;;;;;;;;;;;;;8.88;100.00;99925.09;4985148;28;19965;-78
2023/12/24 09:29:13;;;;;;;;;;;;;;;8.90;100.00;99915.78;4995202;28;19964;-78
2023/12/24 09:31:39;;;;;;;;;;;;;;;8.86;100.00;99919.91;4985463;28;19937;-79
2023/12/24 09:34:05;;;;;;;;;;;;;;;8.87;100.00;99924.25;4992761;28;19921;-79
2023/12/24 09:36:30;;;;;;;;;;;;;;;8.90;100.00;99925.72;4993449;28;19932;-78
2023/12/24 09:38:55;;;;;;;;;;;;;;;8.89;100.00;99916.81;4985845;28;19953;-78
2023/12/24 09:41:20;;;;;;;;;;;;;;;8.92;100.00;99929.84;4990831;28;20291;-78
2023/12/24 09:43:46;;;;;;;;;;;;;;;8.99;100.00;99919.09;4991925;28;19922;-78
2023/12/24 09:46:11;;;;;;;;;;;;;;;8.99;100.00;99918.28;4989284;28;19929;-79
2023/12/24 09:48:39;;;;;;;;;;;;;;;8.92;100.00;99903.00;4982250;28;19922;-78
2023/12/24 09:51:08;;;;;;;;;;;;;;;9.04;100.00;99903.19;4988744;28;19929;-77
2023/12/24 09:53:33;;;;;;;;;;;;;;;9.02;100.00;99897.19;4989103;28;19953;-79
2023/12/24 09:55:58;;;;;;;;;;;;;;;8.99;100.00;99913.72;4981596;28;19926;-79
2023/12/24 09:58:23;;;;;;;;;;;;;;;9.03;100.00;99895.31;4995325;23;20013;-78
2023/12/24 10:00:49;;;;;;;;;;;;;;;8.98;100.00;99884.41;4993535;28;19975;-78
2023/12/24 10:03:14;;;;;;;;;;;;;;;8.98;100.00;99887.91;5003373;28;19956;-78
2023/12/24 10:06:13;;;;;;;;;;;;;;;8.95;100.00;99897.22;4994163;28;19918;-78
2023/12/24 10:08:38;;;;;;;;;;;;;;;8.92;100.00;99891.41;4963488;28;20001;-79
2023/12/24 10:11:11;;;;;;;;;;;;;;;8.94;100.00;99884.81;5000841;28;19992;-78
2023/12/24 10:13:36;;;;;;;;;;;;;;;8.94;100.00;99884.81;4992196;28;19967;-79
2023/12/24 10:16:05;;;;;;;;;;;;;;;8.92;100.00;99878.84;4985465;28;19926;-78
2023/12/24 10:18:30;;;;;;;;;;;;;;;8.93;100.00;99883.16;4993420;28;19965;-78
2023/12/24 10:21:13;;;;;;;;;;;;;;;8.90;100.00;99880.91;4994805;28;19929;-78
2023/12/24 10:23:39;;;;;;;;;;;;;;;8.99;100.00;99864.59;4983219;28;19997;-79
2023/12/24 10:26:05;;;;;;;;;;;;;;;9.02;100.00;99883.75;4988773;28;19942;-79
2023/12/24 10:28:30;;;;;;;;;;;;;;;9.10;100.00;99872.78;4997533;28;20469;-78
2023/12/24 10:31:08;;;;;;;;;;;;;;;9.02;100.00;99873.03;4984608;28;19922;-77
2023/12/24 10:33:37;;;;;;;;;;;;;;;9.04;100.00;99897.81;4993836;28;19921;-78
2023/12/24 10:36:02;;;;;;;;;;;;;;;9.04;100.00;99888.91;4994556;28;20481;-77
2023/12/24 10:38:27;;;;;;;;;;;;;;;9.13;100.00;99890.34;4996267;28;20024;-76
2023/12/24 10:40:52;;;;;;;;;;;;;;;9.11;100.00;99900.47;4996768;28;20361;-78
2023/12/24 10:43:18;;;;;;;;;;;;;;;9.13;100.00;99909.16;4991201;28;19925;-77
2023/12/24 10:45:43;;;;;;;;;;;;;;;9.19;100.00;99899.41;4978417;28;19929;-77
2023/12/24 10:48:08;;;;;;;;;;;;;;;9.14;100.00;99915.31;4983942;28;19914;-77
2023/12/24 10:50:34;;;;;;;;;;;;;;;9.13;100.00;99908.31;4977132;28;19956;-78
2023/12/24 10:52:59;;;;;;;;;;;;;;;9.12;100.00;99907.50;4990778;28;20001;-78
2023/12/24 10:55:24;;;;;;;;;;;;;;;9.12;100.00;99902.13;4985071;28;20002;-78
2023/12/24 10:58:08;;;;;;;;;;;;;;;9.13;100.00;99901.09;4992938;28;19922;-78
2023/12/24 11:00:33;;;;;;;;;;;;;;;9.15;100.00;99900.88;4973650;28;19947;-78
2023/12/24 11:02:59;;;;;;;;;;;;;;;9.23;100.00;99896.09;4985532;28;20020;-78
2023/12/24 11:05:39;;;;;;;;;;;;;;;9.28;100.00;99891.94;4973888;28;19972;-77
2023/12/24 11:08:04;;;;;;;;;;;;;;;9.29;100.00;99890.91;4986650;28;19976;-77
2023/12/24 11:10:37;;;;;;;;;;;;;;;9.24;100.00;99873.56;4985077;28;19930;-78
2023/12/24 11:13:02;;;;;;;;;;;;;;;9.30;100.00;99882.63;4973546;28;19928;-78
2023/12/24 11:15:42;;;;;;;;;;;;;;;9.35;100.00;99876.66;4973177;28;20013;-78
2023/12/24 11:18:10;;;;;;;;;;;;;;;9.34;100.00;99878.50;4972338;28;19977;-80
2023/12/24 11:20:39;;;;;;;;;;;;;;;9.40;100.00;99866.06;4973372;28;19919;-78
2023/12/24 11:23:05;;;;;;;;;;;;;;;9.40;100.00;99866.06;4974042;28;19933;-78
2023/12/24 11:25:36;;;;;;;;;;;;;;;9.46;100.00;99859.84;4971954;28;19922;-78
2023/12/24 11:28:02;;;;;;;;;;;;;;;9.50;100.00;99853.00;4973323;28;19930;-78
2023/12/24 11:30:27;;;;;;;;;;;;;;;9.45;100.00;99855.50;4992335;28;19918;-77
2023/12/24 11:32:53;;;;;;;;;;;;;;;9.47;100.00;99837.31;4977953;28;20344;-77
2023/12/24 11:35:36;;;;;;;;;;;;;;;9.55;100.00;99836.25;4989385;28;20392;-78
2023/12/24 11:38:21;;;;;;;;;;;;;;;9.60;100.00;99801.50;4982740;28;19961;-77
2023/12/24 11:40:47;;;;;;;;;;;;;;;9.58;100.00;99808.09;4979699;28;20400;-78
2023/12/24 11:43:14;;;;;;;;;;;;;;;9.69;100.00;99791.31;4997016;23;20167;-78
2023/12/24 11:45:39;;;;;;;;;;;;;;;9.64;100.00;99797.31;4964461;28;19922;-78
2023/12/24 11:48:05;;;;;;;;;;;;;;;9.69;100.00;99794.00;4969278;28;19929;-79
2023/12/24 11:50:33;;;;;;;;;;;;;;;9.78;100.00;99802.63;4972302;28;19922;-78
2023/12/24 11:53:03;;;;;;;;;;;;;;;9.81;100.00;99800.31;4963831;28;19926;-78
2023/12/24 11:55:31;;;;;;;;;;;;;;;9.77;100.00;99807.16;4971867;28;19918;-78
2023/12/24 11:58:01;;;;;;;;;;;;;;;9.82;100.00;99812.72;4972945;28;19922;-78
2023/12/24 12:00:26;;;;;;;;;;;;;;;9.80;100.00;99805.88;4972015;28;19926;-79
2023/12/24 12:02:55;;;;;;;;;;;;;;;9.89;100.00;99798.38;4973274;28;19926;-78
2023/12/24 12:05:21;;;;;;;;;;;;;;;9.82;100.00;99796.59;4972095;28;19922;-78
2023/12/24 12:07:46;;;;;;;;;;;;;;;9.82;100.00;99799.28;4972346;28;19922;-80
2023/12/24 12:10:12;;;;;;;;;;;;;;;9.89;100.00;99798.38;4972052;28;19930;-79
2023/12/24 12:12:37;;;;;;;;;;;;;;;9.97;100.00;99798.94;4973502;28;20012;-79
2023/12/24 12:15:02;;;;;;;;;;;;;;;9.91;100.00;99793.63;4971856;28;20050;-80
2023/12/24 12:17:27;;;;;;;;;;;;;;;9.93;100.00;99805.81;4972474;28;19929;-79
2023/12/24 12:19:55;;;;;;;;;;;;;;;9.97;100.00;99779.31;4971617;28;20355;-79
2023/12/24 12:22:21;;;;;;;;;;;;;;;9.98;100.00;99770.19;4972739;28;19957;-79
2023/12/24 12:24:46;;;;;;;;;;;;;;;10.04;100.00;99785.47;4971759;28;19970;-79
2023/12/24 12:27:11;;;;;;;;;;;;;;;9.99;100.00;99774.53;4971884;28;19941;-79
2023/12/24 12:29:36;;;;;;;;;;;;;;;9.98;100.00;99775.56;4972802;28;19918;-80
2023/12/24 12:32:02;;;;;;;;;;;;;;;10.07;100.00;99763.47;4972540;28;20044;-79
2023/12/24 12:34:27;;;;;;;;;;;;;;;10.04;100.00;99763.94;4971748;28;19977;-79
2023/12/24 12:36:55;;;;;;;;;;;;;;;9.99;100.00;99753.03;4973380;28;19961;-79
2023/12/24 12:39:21;;;;;;;;;;;;;;;10.00;100.00;99746.59;4971977;28;20363;-79
2023/12/24 12:41:46;;;;;;;;;;;;;;;10.02;100.00;99749.91;4971765;28;19945;-79
2023/12/24 12:44:13;;;;;;;;;;;;;;;10.04;100.00;99747.81;4968011;28;19955;-80
2023/12/24 12:46:39;;;;;;;;;;;;;;;10.05;100.00;99749.47;4966734;28;20382;-79
2023/12/24 12:49:04;;;;;;;;;;;;;;;9.94;100.00;99751.00;4971823;28;19949;-80
2023/12/24 12:51:30;;;;;;;;;;;;;;;9.96;100.00;99740.84;4976543;28;19924;-79
2023/12/24 12:53:55;;;;;;;;;;;;;;;9.96;100.00;99732.78;4975882;28;19922;-79
2023/12/24 12:56:20;;;;;;;;;;;;;;;9.97;100.00;99745.16;4975948;28;19977;-79
2023/12/24 12:58:52;;;;;;;;;;;;;;;9.94;100.00;99742.09;4978095;28;19968;-79
2023/12/24 13:01:17;;;;;;;;;;;;;;;9.94;100.00;99721.44;4976418;28;20015;-79
2023/12/24 13:04:00;;;;;;;;;;;;;;;9.92;100.00;99734.25;4976691;28;20391;-79
2023/12/24 13:06:25;;;;;;;;;;;;;;;9.94;100.00;99737.56;4978763;28;20013;-79
2023/12/24 13:08:51;;;;;;;;;;;;;;;9.90;100.00;99732.81;4978430;28;20037;-79
2023/12/24 13:11:19;;;;;;;;;;;;;;;9.90;100.00;99725.59;4977981;28;20342;-78
2023/12/24 13:13:44;;;;;;;;;;;;;;;9.90;100.00;99725.59;4980755;28;19974;-79
2023/12/24 13:16:10;;;;;;;;;;;;;;;9.80;100.00;99718.03;4982983;28;19969;-79
2023/12/24 13:18:35;;;;;;;;;;;;;;;9.80;100.00;99709.13;4988770;28;19910;-79
2023/12/24 13:21:01;;;;;;;;;;;;;;;9.70;100.00;99712.34;4992943;28;19926;-81
2023/12/24 13:23:26;;;;;;;;;;;;;;;9.79;100.00;99705.63;4974090;28;20399;-79
2023/12/24 13:25:52;;;;;;;;;;;;;;;9.76;100.00;99705.25;4975335;28;20011;-79
2023/12/24 13:28:17;;;;;;;;;;;;;;;9.73;100.00;99701.13;4976579;28;19929;-79
2023/12/24 13:30:44;;;;;;;;;;;;;;;9.79;100.00;99708.31;4976044;28;19929;-78
2023/12/24 13:33:09;;;;;;;;;;;;;;;9.73;100.00;99698.44;4978029;28;20097;-79
2023/12/24 13:35:37;;;;;;;;;;;;;;;9.73;100.00;99711.88;4976309;28;20366;-79
2023/12/24 13:38:03;;;;;;;;;;;;;;;9.73;100.00;99705.69;4973635;28;19933;-79
2023/12/24 13:40:28;;;;;;;;;;;;;;;9.70;100.00;99715.03;4975047;28;20005;-80
2023/12/24 13:42:54;;;;;;;;;;;;;;;9.69;100.00;99714.19;4976091;28;19964;-79
2023/12/24 13:45:19;;;;;;;;;;;;;;;9.69;100.00;99703.44;4974490;28;19937;-79
2023/12/24 13:47:44;;;;;;;;;;;;;;;9.70;100.00;99704.28;4990043;28;19922;-80
2023/12/24 13:50:10;;;;;;;;;;;;;;;9.79;100.00;99689.50;4998580;28;19911;-79
2023/12/24 13:52:36;;;;;;;;;;;;;;;9.74;100.00;99694.72;5155562;23;19969;-80
2023/12/24 13:55:01;;;;;;;;;;;;;;;9.74;100.00;99689.34;4993030;28;19921;-80
2023/12/24 13:57:27;;;;;;;;;;;;;;;9.73;100.00;99692.25;4984880;28;19922;-80
2023/12/24 13:59:52;;;;;;;;;;;;;;;9.71;100.00;99704.03;4973777;28;20231;-80